Time,TemperatureF,DewpointF,PressureIn,WindDirection,WindDirectionDegrees,WindSpeedMPH,WindSpeedGustMPH,Humidity,HourlyPrecipIn,Conditions,Clouds,dailyrainin,SolarRadiationWatts/m^2,SoftwareType,DateUTC
2013-01-13 00:00:00,13.3,9.4,30.47,WNW,294,0.0,0.0,84,0.00,,,0.00,0,Wunderground v.1.15,2013-01-13 08:00:00,
2013-01-13 00:10:00,13.4,9.2,30.46,WNW,293,0.0,0.0,83,0.00,,,0.00,0,Wunderground v.1.15,2013-01-13 08:10:00,
2013-01-13 00:15:00,13.1,8.6,30.46,WNW,284,0.0,0.0,82,0.00,,,0.00,0,Wunderground v.1.15,2013-01-13 08:15:00,
2013-01-13 00:20:00,12.8,8.6,30.46,WNW,284,0.0,0.0,83,0.00,,,0.00,0,Wunderground v.1.15,2013-01-13 08:20:00,
2013-01-13 00:25:00,12.4,8.2,30.46,WNW,284,0.0,0.0,83,0.00,,,0.00,0,Wunderground v.1.15,2013-01-13 08:25:00,
2013-01-13 00:30:00,12.1,8.2,30.46,WNW,286,0.0,0.0,84,0.00,,,0.00,0,Wunderground v.1.15,2013-01-13 08:30:00,
2013-01-13 00:35:00,12.1,8.2,30.46,WNW,285,0.0,0.0,84,0.00,,,0.00,0,Wunderground v.1.15,2013-01-13 08:35:00,
2013-01-13 00:40:00,12.4,8.7,30.46,WNW,285,0.0,0.0,85,0.00,,,0.00,0,Wunderground v.1.15,2013-01-13 08:40:00,
2013-01-13 00:49:00,13.0,9.1,30.46,WNW,285,0.0,0.0,84,0.00,,,0.00,0,Wunderground v.1.15,2013-01-13 08:49:00,
2013-01-13 00:54:00,12.6,8.1,30.46,WNW,285,0.0,0.0,82,0.00,,,0.00,0,Wunderground v.1.15,2013-01-13 08:54:00,
2013-01-13 01:00:00,12.5,8.3,30.46,WNW,285,0.0,0.0,83,0.00,,,0.00,0,Wunderground v.1.15,2013-01-13 09:00:00,
2013-01-13 01:05:00,12.6,8.4,30.46,WNW,285,0.0,0.0,83,0.00,,,0.00,0,Wunderground v.1.15,2013-01-13 09:05:00,
2013-01-13 01:10:00,12.8,8.3,30.47,WNW,284,0.0,0.0,82,0.00,,,0.00,0,Wunderground v.1.15,2013-01-13 09:10:00,
2013-01-13 01:20:00,12.0,7.0,30.47,WNW,284,0.0,0.0,80,0.00,,,0.00,0,Wunderground v.1.15,2013-01-13 09:20:00,
2013-01-13 01:25:00,11.6,6.6,30.46,WNW,284,0.0,0.0,80,0.00,,,0.00,0,Wunderground v.1.15,2013-01-13 09:25:00,
2013-01-13 01:30:00,11.3,6.6,30.46,WNW,282,0.0,0.0,81,0.00,,,0.00,0,Wunderground v.1.15,2013-01-13 09:30:00,
2013-01-13 01:35:00,10.8,6.1,30.47,WNW,282,0.0,0.0,81,0.00,,,0.00,0,Wunderground v.1.15,2013-01-13 09:35:00,
2013-01-13 01:40:00,10.2,5.5,30.47,WNW,287,0.0,0.0,81,0.00,,,0.00,0,Wunderground v.1.15,2013-01-13 09:40:00,
2013-01-13 01:50:00,9.5,5.4,30.48,WNW,292,0.0,0.0,83,0.00,,,0.00,0,Wunderground v.1.15,2013-01-13 09:50:00,
2013-01-13 01:55:00,9.4,5.3,30.48,WNW,291,0.0,0.0,83,0.00,,,0.00,0,Wunderground v.1.15,2013-01-13 09:55:00,
2013-01-13 02:00:00,9.4,5.5,30.48,WNW,291,0.0,0.0,84,0.00,,,0.00,0,Wunderground v.1.15,2013-01-13 10:00:00,
2013-01-13 02:10:00,9.4,5.5,30.47,West,277,0.0,0.0,84,0.00,,,0.00,0,Wunderground v.1.15,2013-01-13 10:10:00,
2013-01-13 02:15:00,9.4,5.5,30.48,West,281,0.0,0.0,84,0.00,,,0.00,0,Wunderground v.1.15,2013-01-13 10:15:00,
2013-01-13 02:25:00,9.2,5.3,30.48,West,281,0.0,0.0,84,0.00,,,0.00,0,Wunderground v.1.15,2013-01-13 10:25:00,
2013-01-13 02:30:00,9.1,5.2,30.48,West,281,0.0,0.0,84,0.00,,,0.00,0,Wunderground v.1.15,2013-01-13 10:30:00,
2013-01-13 02:35:00,9.0,5.1,30.48,WNW,282,0.0,0.0,84,0.00,,,0.00,0,Wunderground v.1.15,2013-01-13 10:35:00,
2013-01-13 02:40:00,8.9,5.1,30.49,WNW,283,0.0,0.0,84,0.00,,,0.00,0,Wunderground v.1.15,2013-01-13 10:40:00,
2013-01-13 02:45:00,8.8,5.0,30.49,WNW,283,0.0,0.0,84,0.00,,,0.00,0,Wunderground v.1.15,2013-01-13 10:45:00,
2013-01-13 02:55:00,8.9,5.3,30.49,WNW,284,0.0,0.0,85,0.00,,,0.00,0,Wunderground v.1.15,2013-01-13 10:55:00,
2013-01-13 03:00:00,8.9,5.3,30.49,WNW,284,0.0,0.0,85,0.00,,,0.00,0,Wunderground v.1.15,2013-01-13 11:00:00,
2013-01-13 03:10:00,8.9,5.3,30.48,WNW,284,0.0,0.0,85,0.00,,,0.00,0,Wunderground v.1.15,2013-01-13 11:10:00,
2013-01-13 03:15:00,8.8,5.2,30.48,WNW,284,0.0,0.0,85,0.00,,,0.00,0,Wunderground v.1.15,2013-01-13 11:15:00,
2013-01-13 03:20:00,8.8,5.2,30.48,WNW,284,0.0,0.0,85,0.00,,,0.00,0,Wunderground v.1.15,2013-01-13 11:20:00,
2013-01-13 03:30:00,8.9,5.3,30.49,WNW,284,0.0,0.0,85,0.00,,,0.00,0,Wunderground v.1.15,2013-01-13 11:30:00,
2013-01-13 03:35:00,8.9,5.3,30.49,WNW,284,0.0,0.0,85,0.00,,,0.00,0,Wunderground v.1.15,2013-01-13 11:35:00,
2013-01-13 03:40:00,8.8,5.2,30.48,WNW,284,0.0,0.0,85,0.00,,,0.00,0,Wunderground v.1.15,2013-01-13 11:40:00,
2013-01-13 03:45:00,8.7,5.1,30.48,WNW,284,0.0,0.0,85,0.00,,,0.00,0,Wunderground v.1.15,2013-01-13 11:45:00,
2013-01-13 03:50:00,8.5,4.9,30.49,WNW,284,0.0,0.0,85,0.00,,,0.00,0,Wunderground v.1.15,2013-01-13 11:50:00,
2013-01-13 04:00:00,8.1,4.3,30.48,WNW,284,0.0,0.0,84,0.00,,,0.00,0,Wunderground v.1.15,2013-01-13 12:00:00,
2013-01-13 04:10:00,7.9,4.3,30.47,WNW,284,0.0,0.0,85,0.00,,,0.00,0,Wunderground v.1.15,2013-01-13 12:10:00,
2013-01-13 04:15:00,7.8,4.2,30.47,WNW,286,0.0,0.0,85,0.00,,,0.00,0,Wunderground v.1.15,2013-01-13 12:15:00,
2013-01-13 04:20:00,7.9,4.3,30.48,WNW,287,0.0,0.0,85,0.00,,,0.00,0,Wunderground v.1.15,2013-01-13 12:20:00,
2013-01-13 04:25:00,7.9,4.3,30.47,WNW,287,0.0,0.0,85,0.00,,,0.00,0,Wunderground v.1.15,2013-01-13 12:25:00,
2013-01-13 04:35:00,7.8,4.2,30.48,WNW,287,0.0,0.0,85,0.00,,,0.00,0,Wunderground v.1.15,2013-01-13 12:35:00,
2013-01-13 04:40:00,7.7,4.1,30.48,WNW,288,0.0,0.0,85,0.00,,,0.00,0,Wunderground v.1.15,2013-01-13 12:40:00,
2013-01-13 04:45:00,7.8,4.2,30.48,WNW,302,1.0,1.0,85,0.00,,,0.00,0,Wunderground v.1.15,2013-01-13 12:45:00,
2013-01-13 04:50:00,7.9,4.3,30.48,WNW,301,2.0,3.0,85,0.00,,,0.00,0,Wunderground v.1.15,2013-01-13 12:50:00,
2013-01-13 04:55:00,8.0,4.4,30.48,WNW,300,2.0,3.0,85,0.00,,,0.00,0,Wunderground v.1.15,2013-01-13 12:55:00,
2013-01-13 05:00:00,8.0,4.4,30.49,WNW,301,2.0,5.0,85,0.00,,,0.00,0,Wunderground v.1.15,2013-01-13 13:00:00,
2013-01-13 05:10:00,7.8,4.2,30.48,WNW,301,2.0,2.0,85,0.00,,,0.00,0,Wunderground v.1.15,2013-01-13 13:10:00,
2013-01-13 05:15:00,7.7,3.9,30.48,WNW,301,2.0,2.0,84,0.00,,,0.00,0,Wunderground v.1.15,2013-01-13 13:15:00,
2013-01-13 05:25:00,7.5,3.9,30.48,WNW,301,2.0,3.0,85,0.00,,,0.00,0,Wunderground v.1.15,2013-01-13 13:25:00,
2013-01-13 05:30:00,7.5,3.9,30.48,WNW,301,2.0,3.0,85,0.00,,,0.00,0,Wunderground v.1.15,2013-01-13 13:30:00,
2013-01-13 05:35:00,7.4,3.8,30.48,WNW,301,3.0,3.0,85,0.00,,,0.00,0,Wunderground v.1.15,2013-01-13 13:35:00,
2013-01-13 05:40:00,7.4,3.8,30.48,WNW,300,2.0,2.0,85,0.00,,,0.00,0,Wunderground v.1.15,2013-01-13 13:40:00,
2013-01-13 05:45:00,7.3,3.5,30.48,WNW,300,3.0,3.0,84,0.00,,,0.00,0,Wunderground v.1.15,2013-01-13 13:45:00,
2013-01-13 05:50:00,7.3,3.5,30.49,WNW,300,3.0,3.0,84,0.00,,,0.00,0,Wunderground v.1.15,2013-01-13 13:50:00,
2013-01-13 05:55:00,7.2,3.4,30.49,WNW,300,2.0,3.0,84,0.00,,,0.00,0,Wunderground v.1.15,2013-01-13 13:55:00,
2013-01-13 06:00:00,7.2,3.4,30.48,WNW,300,1.0,1.0,84,0.00,,,0.00,0,Wunderground v.1.15,2013-01-13 14:00:00,
2013-01-13 06:10:00,7.3,3.5,30.49,WNW,300,1.0,2.0,84,0.00,,,0.00,0,Wunderground v.1.15,2013-01-13 14:10:00,
2013-01-13 06:15:00,7.1,3.3,30.49,WNW,300,1.0,2.0,84,0.00,,,0.00,0,Wunderground v.1.15,2013-01-13 14:15:00,
2013-01-13 06:20:00,6.9,3.1,30.49,WNW,300,2.0,4.0,84,0.00,,,0.00,0,Wunderground v.1.15,2013-01-13 14:20:00,
2013-01-13 06:25:00,6.7,2.9,30.49,WNW,300,3.0,4.0,84,0.00,,,0.00,0,Wunderground v.1.15,2013-01-13 14:25:00,
2013-01-13 06:30:00,6.6,2.8,30.49,WNW,300,2.0,2.0,84,0.00,,,0.00,0,Wunderground v.1.15,2013-01-13 14:30:00,
2013-01-13 06:40:00,6.5,3.0,30.49,WNW,300,2.0,3.0,85,0.00,,,0.00,0,Wunderground v.1.15,2013-01-13 14:40:00,
2013-01-13 06:45:00,6.6,3.0,30.50,WNW,299,3.0,3.0,85,0.00,,,0.00,0,Wunderground v.1.15,2013-01-13 14:45:00,
2013-01-13 06:50:00,6.8,3.2,30.50,WNW,299,3.0,4.0,85,0.00,,,0.00,0,Wunderground v.1.15,2013-01-13 14:50:00,
2013-01-13 06:55:00,6.9,3.3,30.50,WNW,298,3.0,4.0,85,0.00,,,0.00,0,Wunderground v.1.15,2013-01-13 14:55:00,
2013-01-13 07:00:00,7.3,3.7,30.50,WNW,298,2.0,2.0,85,0.00,,,0.00,0,Wunderground v.1.15,2013-01-13 15:00:00,
2013-01-13 07:10:00,8.2,4.4,30.51,WNW,296,1.0,1.0,84,0.00,,,0.00,0,Wunderground v.1.15,2013-01-13 15:10:00,
2013-01-13 07:15:00,8.4,4.6,30.51,WNW,296,1.0,1.0,84,0.00,,,0.00,0,Wunderground v.1.15,2013-01-13 15:15:00,
2013-01-13 07:20:00,8.5,4.4,30.51,WNW,295,1.0,3.0,83,0.00,,,0.00,0,Wunderground v.1.15,2013-01-13 15:20:00,
2013-01-13 07:25:00,9.1,5.0,30.51,WNW,294,1.0,3.0,83,0.00,,,0.00,0,Wunderground v.1.15,2013-01-13 15:25:00,
2013-01-13 07:30:00,9.2,4.6,30.52,WNW,294,1.0,1.0,81,0.00,,,0.00,0,Wunderground v.1.15,2013-01-13 15:30:00,
2013-01-13 07:35:00,8.7,3.8,30.51,WNW,294,1.0,1.0,80,0.00,,,0.00,0,Wunderground v.1.15,2013-01-13 15:35:00,
2013-01-13 07:45:00,7.6,2.7,30.52,WNW,293,2.0,3.0,80,0.00,,,0.00,7,Wunderground v.1.15,2013-01-13 15:45:00,
2013-01-13 07:50:00,7.2,2.6,30.52,WNW,293,3.0,4.0,81,0.00,,,0.00,11,Wunderground v.1.15,2013-01-13 15:50:00,
2013-01-13 07:55:00,7.0,2.7,30.52,WNW,293,3.0,4.0,82,0.00,,,0.00,14,Wunderground v.1.15,2013-01-13 15:55:00,
2013-01-13 08:00:00,7.0,2.9,30.53,WNW,294,3.0,3.0,83,0.00,,,0.00,16,Wunderground v.1.15,2013-01-13 16:00:00,
2013-01-13 08:10:00,7.2,3.1,30.54,WNW,293,0.0,0.0,83,0.00,,,0.00,21,Wunderground v.1.15,2013-01-13 16:10:00,
2013-01-13 08:20:00,7.4,3.6,30.54,WNW,293,0.0,0.0,84,0.00,,,0.00,25,Wunderground v.1.15,2013-01-13 16:20:00,
2013-01-13 08:25:00,7.5,3.4,30.54,WNW,293,1.0,4.0,83,0.00,,,0.00,30,Wunderground v.1.15,2013-01-13 16:25:00,
2013-01-13 08:30:00,7.6,3.8,30.54,WNW,293,1.0,2.0,84,0.00,,,0.00,35,Wunderground v.1.15,2013-01-13 16:30:00,
2013-01-13 08:35:00,8.0,4.2,30.54,WNW,293,1.0,2.0,84,0.00,,,0.00,69,Wunderground v.1.15,2013-01-13 16:35:00,
2013-01-13 08:40:00,8.2,4.1,30.54,WNW,292,1.0,2.0,83,0.00,,,0.00,102,Wunderground v.1.15,2013-01-13 16:40:00,
2013-01-13 08:50:00,8.8,4.7,30.55,WNW,292,1.0,1.0,83,0.00,,,0.00,127,Wunderground v.1.15,2013-01-13 16:50:00,
2013-01-13 08:55:00,9.2,5.1,30.54,WNW,292,1.0,1.0,83,0.00,,,0.00,141,Wunderground v.1.15,2013-01-13 16:55:00,
2013-01-13 09:00:00,9.6,5.5,30.54,WNW,295,0.0,0.0,83,0.00,,,0.00,158,Wunderground v.1.15,2013-01-13 17:00:00,
2013-01-13 09:10:00,11.4,6.7,30.55,West,263,0.0,0.0,81,0.00,,,0.00,190,Wunderground v.1.15,2013-01-13 17:10:00,
2013-01-13 09:15:00,11.9,6.9,30.55,West,261,0.0,0.0,80,0.00,,,0.00,190,Wunderground v.1.15,2013-01-13 17:15:00,
2013-01-13 09:25:00,12.6,7.3,30.55,West,275,0.0,0.0,79,0.00,,,0.00,237,Wunderground v.1.15,2013-01-13 17:25:00,
2013-01-13 09:30:00,13.4,8.1,30.55,West,267,0.0,0.0,79,0.00,,,0.00,257,Wunderground v.1.15,2013-01-13 17:30:00,
2013-01-13 09:35:00,14.1,8.5,30.55,West,268,0.0,0.0,78,0.00,,,0.00,281,Wunderground v.1.15,2013-01-13 17:35:00,
2013-01-13 09:40:00,14.5,9.2,30.55,West,269,0.0,0.0,79,0.00,,,0.00,294,Wunderground v.1.15,2013-01-13 17:40:00,
2013-01-13 09:45:00,15.2,9.6,30.55,West,269,0.0,0.0,78,0.00,,,0.00,313,Wunderground v.1.15,2013-01-13 17:45:00,
2013-01-13 09:50:00,15.6,10.0,30.55,West,271,0.0,0.0,78,0.00,,,0.00,313,Wunderground v.1.15,2013-01-13 17:50:00,
2013-01-13 09:55:00,16.0,10.1,30.55,West,262,0.0,0.0,77,0.00,,,0.00,334,Wunderground v.1.15,2013-01-13 17:55:00,
2013-01-13 10:00:00,16.6,10.3,30.56,West,275,0.0,0.0,76,0.00,,,0.00,352,Wunderground v.1.15,2013-01-13 18:00:00,
2013-01-13 10:10:00,17.6,11.0,30.56,SW,223,0.0,1.0,75,0.00,,,0.00,378,Wunderground v.1.15,2013-01-13 18:10:00,
2013-01-13 10:15:00,17.5,10.3,30.56,West,259,1.0,1.0,73,0.00,,,0.00,390,Wunderground v.1.15,2013-01-13 18:15:00,
2013-01-13 10:20:00,17.6,10.4,30.56,West,262,1.0,1.0,73,0.00,,,0.00,397,Wunderground v.1.15,2013-01-13 18:20:00,
2013-01-13 10:25:00,18.1,11.2,30.56,West,265,1.0,1.0,74,0.00,,,0.00,418,Wunderground v.1.15,2013-01-13 18:25:00,
2013-01-13 10:30:00,18.9,11.4,30.56,West,263,0.0,2.0,72,0.00,,,0.00,429,Wunderground v.1.15,2013-01-13 18:30:00,
2013-01-13 10:35:00,19.3,12.1,30.56,WSW,241,0.0,2.0,73,0.00,,,0.00,434,Wunderground v.1.15,2013-01-13 18:35:00,
2013-01-13 10:40:00,19.6,12.0,30.56,WSW,253,0.0,0.0,72,0.00,,,0.00,434,Wunderground v.1.15,2013-01-13 18:40:00,
2013-01-13 10:45:00,19.9,12.0,30.55,West,265,0.0,0.0,71,0.00,,,0.00,438,Wunderground v.1.15,2013-01-13 18:45:00,
2013-01-13 10:50:00,20.4,12.5,30.55,WSW,257,0.0,0.0,71,0.00,,,0.00,441,Wunderground v.1.15,2013-01-13 18:50:00,
2013-01-13 11:00:00,21.6,13.6,30.55,West,271,0.0,0.0,71,0.00,,,0.00,457,Wunderground v.1.15,2013-01-13 19:00:00,
2013-01-13 11:10:00,22.4,13.8,30.55,West,271,0.0,0.0,69,0.00,,,0.00,469,Wunderground v.1.15,2013-01-13 19:10:00,
2013-01-13 11:15:00,22.8,14.5,30.55,WNW,286,0.0,1.0,70,0.00,,,0.00,471,Wunderground v.1.15,2013-01-13 19:15:00,
2013-01-13 11:20:00,23.2,14.5,30.54,West,279,0.0,0.0,69,0.00,,,0.00,476,Wunderground v.1.15,2013-01-13 19:20:00,
2013-01-13 11:30:00,23.8,14.8,30.54,West,275,0.0,0.0,68,0.00,,,0.00,482,Wunderground v.1.15,2013-01-13 19:30:00,
2013-01-13 11:35:00,24.0,14.6,30.54,West,274,0.0,0.0,67,0.00,,,0.00,483,Wunderground v.1.15,2013-01-13 19:35:00,
2013-01-13 11:40:00,24.4,15.0,30.54,West,273,0.0,0.0,67,0.00,,,0.00,485,Wunderground v.1.15,2013-01-13 19:40:00,
2013-01-13 11:45:00,24.7,14.9,30.53,West,273,0.0,0.0,66,0.00,,,0.00,489,Wunderground v.1.15,2013-01-13 19:45:00,
2013-01-13 11:50:00,24.9,14.8,30.53,West,277,0.0,0.0,65,0.00,,,0.00,490,Wunderground v.1.15,2013-01-13 19:50:00,
2013-01-13 11:55:00,25.1,15.0,30.52,West,278,0.0,0.0,65,0.00,,,0.00,492,Wunderground v.1.15,2013-01-13 19:55:00,
2013-01-13 12:00:00,25.4,14.9,30.52,West,278,0.0,0.0,64,0.00,,,0.00,494,Wunderground v.1.15,2013-01-13 20:00:00,
2013-01-13 12:10:00,25.8,15.6,30.52,West,277,0.0,0.0,65,0.00,,,0.00,494,Wunderground v.1.15,2013-01-13 20:10:00,
2013-01-13 12:15:00,26.1,15.6,30.51,West,277,0.0,0.0,64,0.00,,,0.00,494,Wunderground v.1.15,2013-01-13 20:15:00,
2013-01-13 12:20:00,26.4,15.9,30.51,West,280,0.0,0.0,64,0.00,,,0.00,492,Wunderground v.1.15,2013-01-13 20:20:00,
2013-01-13 12:25:00,26.7,15.4,30.51,WNW,295,0.0,0.0,62,0.00,,,0.00,494,Wunderground v.1.15,2013-01-13 20:25:00,
2013-01-13 12:35:00,26.9,15.2,30.50,WNW,302,0.0,0.0,61,0.00,,,0.00,490,Wunderground v.1.15,2013-01-13 20:35:00,
2013-01-13 12:40:00,26.9,15.2,30.50,NW,311,0.0,0.0,61,0.00,,,0.00,489,Wunderground v.1.15,2013-01-13 20:40:00,
2013-01-13 12:45:00,26.9,14.9,30.50,NW,311,0.0,0.0,60,0.00,,,0.00,487,Wunderground v.1.15,2013-01-13 20:45:00,
2013-01-13 12:50:00,27.0,15.3,30.50,NW,311,0.0,0.0,61,0.00,,,0.00,482,Wunderground v.1.15,2013-01-13 20:50:00,
2013-01-13 12:55:00,27.3,15.2,30.50,NW,304,0.0,0.0,60,0.00,,,0.00,480,Wunderground v.1.15,2013-01-13 20:55:00,
2013-01-13 13:00:00,27.6,15.5,30.50,NW,304,0.0,0.0,60,0.00,,,0.00,476,Wunderground v.1.15,2013-01-13 21:00:00,
2013-01-13 13:10:00,28.7,16.6,30.50,WNW,301,0.0,0.0,60,0.00,,,0.00,469,Wunderground v.1.15,2013-01-13 21:10:00,
2013-01-13 13:15:00,28.8,15.9,30.50,WNW,301,0.0,0.0,58,0.00,,,0.00,464,Wunderground v.1.15,2013-01-13 21:15:00,
2013-01-13 13:20:00,29.2,16.2,30.50,WNW,301,0.0,0.0,58,0.00,,,0.00,457,Wunderground v.1.15,2013-01-13 21:20:00,
2013-01-13 13:25:00,29.3,16.3,30.50,WNW,301,0.0,0.0,58,0.00,,,0.00,454,Wunderground v.1.15,2013-01-13 21:25:00,
2013-01-13 13:30:00,29.6,16.2,30.50,WNW,300,0.0,0.0,57,0.00,,,0.00,446,Wunderground v.1.15,2013-01-13 21:30:00,
2013-01-13 13:40:00,28.7,15.0,30.50,SW,223,0.0,0.0,56,0.00,,,0.00,431,Wunderground v.1.15,2013-01-13 21:40:00,
2013-01-13 13:45:00,27.9,15.0,30.50,SW,222,0.0,0.0,58,0.00,,,0.00,424,Wunderground v.1.15,2013-01-13 21:45:00,
2013-01-13 13:50:00,27.8,14.9,30.50,SW,222,0.0,0.0,58,0.00,,,0.00,415,Wunderground v.1.15,2013-01-13 21:50:00,
2013-01-13 13:55:00,27.4,13.7,30.50,SSW,206,0.0,0.0,56,0.00,,,0.00,408,Wunderground v.1.15,2013-01-13 21:55:00,
2013-01-13 14:00:00,27.0,13.4,30.50,SSW,198,0.0,0.0,56,0.00,,,0.00,410,Wunderground v.1.15,2013-01-13 22:00:00,
2013-01-13 14:10:00,27.0,12.1,30.50,SSW,198,0.0,0.0,53,0.00,,,0.00,397,Wunderground v.1.15,2013-01-13 22:10:00,
2013-01-13 14:15:00,27.1,12.6,30.50,SSW,198,0.0,0.0,54,0.00,,,0.00,376,Wunderground v.1.15,2013-01-13 22:15:00,
2013-01-13 14:20:00,27.2,13.1,30.50,SSW,198,0.0,0.0,55,0.00,,,0.00,369,Wunderground v.1.15,2013-01-13 22:20:00,
2013-01-13 14:25:00,27.4,12.9,30.50,SSW,198,0.0,0.0,54,0.00,,,0.00,353,Wunderground v.1.15,2013-01-13 22:25:00,
2013-01-13 14:30:00,27.6,12.2,30.50,SSW,198,0.0,0.0,52,0.00,,,0.00,345,Wunderground v.1.15,2013-01-13 22:30:00,
2013-01-13 14:35:00,27.9,11.6,30.50,SSW,198,0.0,0.0,50,0.00,,,0.00,334,Wunderground v.1.15,2013-01-13 22:35:00,
2013-01-13 14:40:00,27.9,11.6,30.51,SSW,197,0.0,0.0,50,0.00,,,0.00,320,Wunderground v.1.15,2013-01-13 22:40:00,
2013-01-13 14:45:00,28.0,11.3,30.51,SSW,197,0.0,0.0,49,0.00,,,0.00,311,Wunderground v.1.15,2013-01-13 22:45:00,
2013-01-13 14:50:00,28.4,13.0,30.51,SSW,197,0.0,0.0,52,0.00,,,0.00,299,Wunderground v.1.15,2013-01-13 22:50:00,
2013-01-13 14:55:00,28.9,13.0,30.51,SSW,197,0.0,0.0,51,0.00,,,0.00,287,Wunderground v.1.15,2013-01-13 22:55:00,
2013-01-13 15:00:00,29.2,13.3,30.51,SSW,198,0.0,0.0,51,0.00,,,0.00,276,Wunderground v.1.15,2013-01-13 23:00:00,
2013-01-13 15:10:00,29.2,13.3,30.51,South,186,0.0,0.0,51,0.00,,,0.00,251,Wunderground v.1.15,2013-01-13 23:10:00,
2013-01-13 15:15:00,29.0,13.6,30.51,South,184,0.0,0.0,52,0.00,,,0.00,236,Wunderground v.1.15,2013-01-13 23:15:00,
2013-01-13 15:20:00,29.0,14.4,30.51,South,183,0.0,0.0,54,0.00,,,0.00,221,Wunderground v.1.15,2013-01-13 23:20:00,
2013-01-13 15:25:00,29.0,14.8,30.51,South,180,0.0,0.0,55,0.00,,,0.00,207,Wunderground v.1.15,2013-01-13 23:25:00,
2013-01-13 15:30:00,28.9,15.6,30.50,South,180,0.0,0.0,57,0.00,,,0.00,193,Wunderground v.1.15,2013-01-13 23:30:00,
2013-01-13 15:35:00,28.8,15.1,30.51,South,179,0.0,0.0,56,0.00,,,0.00,174,Wunderground v.1.15,2013-01-13 23:35:00,
2013-01-13 15:40:00,28.7,15.4,30.51,South,179,0.0,0.0,57,0.00,,,0.00,151,Wunderground v.1.15,2013-01-13 23:40:00,
2013-01-13 15:50:00,28.6,15.7,30.51,South,179,0.0,0.0,58,0.00,,,0.00,123,Wunderground v.1.15,2013-01-13 23:50:00,
2013-01-13 15:55:00,28.6,15.3,30.51,South,173,0.0,0.0,57,0.00,,,0.00,88,Wunderground v.1.15,2013-01-13 23:55:00,
2013-01-13 16:00:00,28.5,15.2,30.51,South,171,0.0,0.0,57,0.00,,,0.00,84,Wunderground v.1.15,2013-01-14 00:00:00,
2013-01-13 16:10:00,28.3,15.8,30.51,SE,134,0.0,0.0,59,0.00,,,0.00,37,Wunderground v.1.15,2013-01-14 00:10:00,
2013-01-13 16:20:00,27.9,16.2,30.51,SE,138,0.0,0.0,61,0.00,,,0.00,25,Wunderground v.1.15,2013-01-14 00:20:00,
2013-01-13 16:25:00,27.7,16.4,30.51,SE,136,0.0,0.0,62,0.00,,,0.00,21,Wunderground v.1.15,2013-01-14 00:25:00,
2013-01-13 16:30:00,27.5,16.5,30.51,SE,134,0.0,0.0,63,0.00,,,0.00,21,Wunderground v.1.15,2013-01-14 00:30:00,
2013-01-13 16:35:00,27.3,16.7,30.51,SE,134,0.0,0.0,64,0.00,,,0.00,18,Wunderground v.1.15,2013-01-14 00:35:00,
2013-01-13 16:40:00,27.1,16.5,30.51,SE,134,0.0,0.0,64,0.00,,,0.00,12,Wunderground v.1.15,2013-01-14 00:40:00,
2013-01-13 16:45:00,26.9,16.7,30.51,SE,134,0.0,0.0,65,0.00,,,0.00,7,Wunderground v.1.15,2013-01-14 00:45:00,
2013-01-13 16:55:00,26.5,16.7,30.51,SE,134,0.0,0.0,66,0.00,,,0.00,5,Wunderground v.1.15,2013-01-14 00:55:00,
2013-01-13 17:00:00,26.2,16.4,30.51,SE,134,0.0,0.0,66,0.00,,,0.00,0,Wunderground v.1.15,2013-01-14 01:00:00,
2013-01-13 17:10:00,25.8,16.0,30.51,SE,134,0.0,0.0,66,0.00,,,0.00,0,Wunderground v.1.15,2013-01-14 01:10:00,
2013-01-13 17:15:00,25.8,16.0,30.52,SE,134,0.0,0.0,66,0.00,,,0.00,0,Wunderground v.1.15,2013-01-14 01:15:00,
2013-01-13 17:25:00,25.6,15.8,30.52,SE,134,0.0,0.0,66,0.00,,,0.00,0,Wunderground v.1.15,2013-01-14 01:25:00,
2013-01-13 17:30:00,25.5,15.7,30.52,SE,134,0.0,0.0,66,0.00,,,0.00,0,Wunderground v.1.15,2013-01-14 01:30:00,
2013-01-13 17:35:00,25.3,15.5,30.52,SE,134,0.0,0.0,66,0.00,,,0.00,0,Wunderground v.1.15,2013-01-14 01:35:00,
2013-01-13 17:40:00,25.2,15.4,30.52,SE,134,0.0,0.0,66,0.00,,,0.00,0,Wunderground v.1.15,2013-01-14 01:40:00,
2013-01-13 17:45:00,25.1,15.3,30.52,SE,134,0.0,0.0,66,0.00,,,0.00,0,Wunderground v.1.15,2013-01-14 01:45:00,
2013-01-13 17:50:00,25.0,15.6,30.52,SE,134,0.0,0.0,67,0.00,,,0.00,0,Wunderground v.1.15,2013-01-14 01:50:00,
2013-01-13 18:00:00,24.9,15.5,30.52,SE,134,0.0,0.0,67,0.00,,,0.00,0,Wunderground v.1.15,2013-01-14 02:00:00,
2013-01-13 18:10:00,24.8,15.7,30.52,SE,134,0.0,0.0,68,0.00,,,0.00,0,Wunderground v.1.15,2013-01-14 02:10:00,
2013-01-13 18:15:00,24.7,16.0,30.52,SE,134,0.0,0.0,69,0.00,,,0.00,0,Wunderground v.1.15,2013-01-14 02:15:00,
2013-01-13 18:20:00,24.6,15.9,30.52,SE,134,0.0,0.0,69,0.00,,,0.00,0,Wunderground v.1.15,2013-01-14 02:20:00,
2013-01-13 18:30:00,24.3,15.9,30.52,SE,134,0.0,0.0,70,0.00,,,0.00,0,Wunderground v.1.15,2013-01-14 02:30:00,
2013-01-13 18:35:00,24.2,16.1,30.52,SE,134,0.0,0.0,71,0.00,,,0.00,0,Wunderground v.1.15,2013-01-14 02:35:00,
2013-01-13 18:40:00,24.0,16.3,30.52,SE,134,0.0,0.0,72,0.00,,,0.00,0,Wunderground v.1.15,2013-01-14 02:40:00,
2013-01-13 18:45:00,23.8,16.4,30.52,SE,134,0.0,0.0,73,0.00,,,0.00,0,Wunderground v.1.15,2013-01-14 02:45:00,
2013-01-13 18:50:00,23.6,16.2,30.53,SE,134,0.0,0.0,73,0.00,,,0.00,0,Wunderground v.1.15,2013-01-14 02:50:00,
2013-01-13 18:55:00,23.5,16.4,30.53,SE,134,0.0,0.0,74,0.00,,,0.00,0,Wunderground v.1.15,2013-01-14 02:55:00,
2013-01-13 19:00:00,23.5,16.4,30.53,SE,134,0.0,0.0,74,0.00,,,0.00,0,Wunderground v.1.15,2013-01-14 03:00:00,
2013-01-13 19:10:00,23.3,16.5,30.53,SE,134,0.0,0.0,75,0.00,,,0.00,0,Wunderground v.1.15,2013-01-14 03:10:00,
2013-01-13 19:15:00,23.1,16.7,30.54,SE,134,0.0,0.0,76,0.00,,,0.00,0,Wunderground v.1.15,2013-01-14 03:15:00,
2013-01-13 19:20:00,23.0,16.6,30.54,SE,134,0.0,0.0,76,0.00,,,0.00,0,Wunderground v.1.15,2013-01-14 03:20:00,
2013-01-13 19:25:00,22.9,16.5,30.54,SE,134,0.0,0.0,76,0.00,,,0.00,0,Wunderground v.1.15,2013-01-14 03:25:00,
2013-01-13 19:35:00,22.6,16.5,30.53,SE,134,0.0,0.0,77,0.00,,,0.00,0,Wunderground v.1.15,2013-01-14 03:35:00,
2013-01-13 19:40:00,22.5,16.4,30.53,SE,134,0.0,0.0,77,0.00,,,0.00,0,Wunderground v.1.15,2013-01-14 03:40:00,
2013-01-13 19:45:00,22.5,16.4,30.53,SE,134,0.0,0.0,77,0.00,,,0.00,0,Wunderground v.1.15,2013-01-14 03:45:00,
2013-01-13 19:50:00,22.3,16.2,30.53,SE,134,0.0,0.0,77,0.00,,,0.00,0,Wunderground v.1.15,2013-01-14 03:50:00,
2013-01-13 19:55:00,22.1,16.0,30.54,SE,134,0.0,0.0,77,0.00,,,0.00,0,Wunderground v.1.15,2013-01-14 03:55:00,
2013-01-13 20:00:00,21.9,15.8,30.53,SE,134,0.0,0.0,77,0.00,,,0.00,0,Wunderground v.1.15,2013-01-14 04:00:00,
2013-01-13 20:05:00,21.7,15.9,30.53,SE,134,0.0,0.0,78,0.00,,,0.00,0,Wunderground v.1.15,2013-01-14 04:05:00,
2013-01-13 20:10:00,21.5,15.7,30.53,SE,134,0.0,0.0,78,0.00,,,0.00,0,Wunderground v.1.15,2013-01-14 04:10:00,
2013-01-13 20:15:00,21.3,15.8,30.53,SE,134,0.0,0.0,79,0.00,,,0.00,0,Wunderground v.1.15,2013-01-14 04:15:00,
2013-01-13 20:20:00,21.1,15.6,30.53,SE,134,0.0,0.0,79,0.00,,,0.00,0,Wunderground v.1.15,2013-01-14 04:20:00,
2013-01-13 20:25:00,21.0,15.8,30.53,SE,134,0.0,0.0,80,0.00,,,0.00,0,Wunderground v.1.15,2013-01-14 04:25:00,
2013-01-13 20:30:00,21.3,16.1,30.53,SE,134,0.0,0.0,80,0.00,,,0.00,0,Wunderground v.1.15,2013-01-14 04:30:00,
2013-01-13 20:40:00,20.8,15.3,30.54,SE,134,0.0,0.0,79,0.00,,,0.00,0,Wunderground v.1.15,2013-01-14 04:40:00,
2013-01-13 20:45:00,20.6,15.4,30.54,SE,134,0.0,0.0,80,0.00,,,0.00,0,Wunderground v.1.15,2013-01-14 04:45:00,
2013-01-13 20:50:00,20.5,15.3,30.54,SE,134,0.0,0.0,80,0.00,,,0.00,0,Wunderground v.1.15,2013-01-14 04:50:00,
2013-01-13 20:55:00,20.3,15.1,30.55,SE,134,0.0,0.0,80,0.00,,,0.00,0,Wunderground v.1.15,2013-01-14 04:55:00,
2013-01-13 21:05:00,20.0,15.4,30.55,SE,134,0.0,0.0,82,0.00,,,0.00,0,Wunderground v.1.15,2013-01-14 05:05:00,
2013-01-13 21:10:00,19.9,15.3,30.55,SE,134,0.0,0.0,82,0.00,,,0.00,0,Wunderground v.1.15,2013-01-14 05:10:00,
2013-01-13 21:15:00,19.8,15.2,30.55,SE,134,0.0,0.0,82,0.00,,,0.00,0,Wunderground v.1.15,2013-01-14 05:15:00,
2013-01-13 21:20:00,19.5,14.9,30.54,SE,134,0.0,0.0,82,0.00,,,0.00,0,Wunderground v.1.15,2013-01-14 05:20:00,
2013-01-13 21:25:00,19.1,14.5,30.54,SE,134,0.0,0.0,82,0.00,,,0.00,0,Wunderground v.1.15,2013-01-14 05:25:00,
2013-01-13 21:30:00,18.7,14.1,30.54,SE,134,0.0,0.0,82,0.00,,,0.00,0,Wunderground v.1.15,2013-01-14 05:30:00,
2013-01-13 21:35:00,18.4,13.8,30.54,SE,134,0.0,0.0,82,0.00,,,0.00,0,Wunderground v.1.15,2013-01-14 05:35:00,
2013-01-13 21:40:00,18.1,13.5,30.54,SE,134,0.0,0.0,82,0.00,,,0.00,0,Wunderground v.1.15,2013-01-14 05:40:00,
2013-01-13 21:50:00,17.7,12.9,30.55,SE,138,0.0,0.0,81,0.00,,,0.00,0,Wunderground v.1.15,2013-01-14 05:50:00,
2013-01-13 21:55:00,17.4,12.3,30.55,SE,138,0.0,0.0,80,0.00,,,0.00,0,Wunderground v.1.15,2013-01-14 05:55:00,
2013-01-13 22:00:00,17.2,12.1,30.55,SE,139,0.0,0.0,80,0.00,,,0.00,0,Wunderground v.1.15,2013-01-14 06:00:00,
2013-01-13 22:10:00,16.8,11.4,30.55,South,175,0.0,0.0,79,0.00,,,0.00,0,Wunderground v.1.15,2013-01-14 06:10:00,
2013-01-13 22:20:00,17.2,12.1,30.55,South,175,0.0,0.0,80,0.00,,,0.00,0,Wunderground v.1.15,2013-01-14 06:20:00,
2013-01-13 22:25:00,17.2,11.8,30.55,South,175,0.0,0.0,79,0.00,,,0.00,0,Wunderground v.1.15,2013-01-14 06:25:00,
2013-01-13 22:30:00,17.0,11.3,30.56,South,178,0.0,0.0,78,0.00,,,0.00,0,Wunderground v.1.15,2013-01-14 06:30:00,
2013-01-13 22:35:00,16.9,11.2,30.55,South,179,0.0,0.0,78,0.00,,,0.00,0,Wunderground v.1.15,2013-01-14 06:35:00,
2013-01-13 22:40:00,16.7,10.7,30.56,South,182,0.0,0.0,77,0.00,,,0.00,0,Wunderground v.1.15,2013-01-14 06:40:00,
2013-01-13 22:45:00,16.7,10.7,30.55,South,186,0.0,0.0,77,0.00,,,0.00,0,Wunderground v.1.15,2013-01-14 06:45:00,
2013-01-13 22:55:00,15.8,9.6,30.55,West,276,0.0,0.0,76,0.00,,,0.00,0,Wunderground v.1.15,2013-01-14 06:55:00,
2013-01-13 23:00:00,15.2,9.0,30.55,WNW,284,0.0,0.0,76,0.00,,,0.00,0,Wunderground v.1.15,2013-01-14 07:00:00,
2013-01-13 23:10:00,14.8,8.9,30.56,WNW,288,0.0,1.0,77,0.00,,,0.00,0,Wunderground v.1.15,2013-01-14 07:10:00,
2013-01-13 23:15:00,14.8,8.9,30.56,WNW,288,0.0,3.0,77,0.00,,,0.00,0,Wunderground v.1.15,2013-01-14 07:15:00,
2013-01-13 23:25:00,14.9,9.0,30.56,WNW,285,0.0,1.0,77,0.00,,,0.00,0,Wunderground v.1.15,2013-01-14 07:25:00,
2013-01-13 23:30:00,15.1,8.9,30.56,West,276,0.0,1.0,76,0.00,,,0.00,0,Wunderground v.1.15,2013-01-14 07:30:00,
2013-01-13 23:35:00,15.3,8.8,30.56,WNW,287,1.0,2.0,75,0.00,,,0.00,0,Wunderground v.1.15,2013-01-14 07:35:00,
2013-01-13 23:40:00,15.5,8.7,30.56,West,279,2.0,2.0,74,0.00,,,0.00,0,Wunderground v.1.15,2013-01-14 07:40:00,
2013-01-13 23:45:00,15.8,8.7,30.56,West,275,2.0,2.0,73,0.00,,,0.00,0,Wunderground v.1.15,2013-01-14 07:45:00,
2013-01-13 23:50:00,15.9,8.5,30.56,WNW,290,2.0,3.0,72,0.00,,,0.00,0,Wunderground v.1.15,2013-01-14 07:50:00,